sensor_id;sensor_type;location;lat;lon;timestamp;pressure;altitude;pressure_sealevel;temperature;humidity
56594;BME280;42474;51.660;5.824;2023-03-16T00:00:30;101770.0;;;5.1;64.0
56594;BME280;42474;51.660;5.824;2023-03-16T00:05:30;101760.0;;;5.1;64.0
56594;BME280;42474;51.660;5.824;2023-03-16T00:10:31;101760.0;;;5.1;64.5
56594;BME280;42474;51.660;5.824;2023-03-16T00:15:30;101760.0;;;5.1;64.5
56594;BME280;42474;51.660;5.824;2023-03-16T00:20:30;101750.0;;;5.2;64.0
56594;BME280;42474;51.660;5.824;2023-03-16T00:25:30;101760.0;;;5.2;64.5
56594;BME280;42474;51.660;5.824;2023-03-16T00:30:30;101760.0;;;5.2;64.0
56594;BME280;42474;51.660;5.824;2023-03-16T00:35:30;101760.0;;;5.2;64.5
56594;BME280;42474;51.660;5.824;2023-03-16T00:40:30;101740.0;;;5.2;64.0
56594;BME280;42474;51.660;5.824;2023-03-16T00:45:31;101740.0;;;5.3;64.5
56594;BME280;42474;51.660;5.824;2023-03-16T00:50:31;101730.0;;;5.3;64.5
56594;BME280;42474;51.660;5.824;2023-03-16T00:55:30;101730.0;;;5.3;65.0
56594;BME280;42474;51.660;5.824;2023-03-16T01:00:30;101720.0;;;5.3;64.5
56594;BME280;42474;51.660;5.824;2023-03-16T01:05:30;101720.0;;;5.3;65.0
56594;BME280;42474;51.660;5.824;2023-03-16T01:10:32;101710.0;;;5.3;65.0
56594;BME280;42474;51.660;5.824;2023-03-16T01:15:30;101700.0;;;5.2;65.0
56594;BME280;42474;51.660;5.824;2023-03-16T01:20:31;101710.0;;;5.2;65.5
56594;BME280;42474;51.660;5.824;2023-03-16T01:25:30;101680.0;;;5.2;65.5
56594;BME280;42474;51.660;5.824;2023-03-16T01:30:30;101680.0;;;5.2;65.5
56594;BME280;42474;51.660;5.824;2023-03-16T01:35:31;101680.0;;;5.1;66.0
56594;BME280;42474;51.660;5.824;2023-03-16T01:40:30;101680.0;;;5.1;66.0
56594;BME280;42474;51.660;5.824;2023-03-16T01:46:24;101660.0;;;5.1;66.0
56594;BME280;42474;51.660;5.824;2023-03-16T01:50:31;101660.0;;;5.1;66.5
56594;BME280;42474;51.660;5.824;2023-03-16T01:55:30;101660.0;;;5.0;66.5
56594;BME280;42474;51.660;5.824;2023-03-16T02:05:35;101650.0;;;5.0;66.5
56594;BME280;42474;51.660;5.824;2023-03-16T02:10:31;101650.0;;;5.0;66.5
56594;BME280;42474;51.660;5.824;2023-03-16T02:15:30;101640.0;;;5.0;66.5
56594;BME280;42474;51.660;5.824;2023-03-16T02:20:47;101620.0;;;5.0;67.0
56594;BME280;42474;51.660;5.824;2023-03-16T02:25:38;101620.0;;;5.0;66.5
56594;BME280;42474;51.660;5.824;2023-03-16T02:30:31;101620.0;;;5.0;66.5
56594;BME280;42474;51.660;5.824;2023-03-16T02:35:31;101620.0;;;5.0;67.0
56594;BME280;42474;51.660;5.824;2023-03-16T02:40:34;101620.0;;;5.0;67.0
56594;BME280;42474;51.660;5.824;2023-03-16T02:45:34;101620.0;;;5.1;67.0
56594;BME280;42474;51.660;5.824;2023-03-16T02:50:30;101610.0;;;5.1;67.0
56594;BME280;42474;51.660;5.824;2023-03-16T02:55:30;101620.0;;;5.2;66.5
56594;BME280;42474;51.660;5.824;2023-03-16T03:00:31;101610.0;;;5.2;67.0
56594;BME280;42474;51.660;5.824;2023-03-16T03:05:31;101600.0;;;5.2;67.0
56594;BME280;42474;51.660;5.824;2023-03-16T03:10:31;101610.0;;;5.3;67.0
56594;BME280;42474;51.660;5.824;2023-03-16T03:15:31;101610.0;;;5.3;67.0
56594;BME280;42474;51.660;5.824;2023-03-16T03:20:31;101600.0;;;5.3;67.0
56594;BME280;42474;51.660;5.824;2023-03-16T03:25:31;101610.0;;;5.3;67.0
56594;BME280;42474;51.660;5.824;2023-03-16T03:30:31;101610.0;;;5.3;67.0
56594;BME280;42474;51.660;5.824;2023-03-16T03:35:31;101590.0;;;5.3;67.5
56594;BME280;42474;51.660;5.824;2023-03-16T03:40:31;101600.0;;;5.2;68.0
56594;BME280;42474;51.660;5.824;2023-03-16T03:45:31;101590.0;;;5.2;67.5
56594;BME280;42474;51.660;5.824;2023-03-16T03:50:31;101580.0;;;5.2;68.5
56594;BME280;42474;51.660;5.824;2023-03-16T03:55:31;101570.0;;;5.2;69.0
56594;BME280;42474;51.660;5.824;2023-03-16T04:00:31;101560.0;;;5.1;68.5
56594;BME280;42474;51.660;5.824;2023-03-16T04:05:31;101570.0;;;5.1;68.5
56594;BME280;42474;51.660;5.824;2023-03-16T04:10:31;101570.0;;;5.1;69.0
56594;BME280;42474;51.660;5.824;2023-03-16T04:15:31;101570.0;;;5.1;69.0
56594;BME280;42474;51.660;5.824;2023-03-16T04:20:31;101560.0;;;5.1;69.0
56594;BME280;42474;51.660;5.824;2023-03-16T04:25:31;101570.0;;;5.1;69.0
56594;BME280;42474;51.660;5.824;2023-03-16T04:30:31;101570.0;;;5.1;69.5
56594;BME280;42474;51.660;5.824;2023-03-16T04:35:31;101570.0;;;5.1;69.5
56594;BME280;42474;51.660;5.824;2023-03-16T04:40:31;101560.0;;;5.1;69.5
56594;BME280;42474;51.660;5.824;2023-03-16T04:45:31;101570.0;;;5.1;69.5
56594;BME280;42474;51.660;5.824;2023-03-16T04:50:31;101560.0;;;5.1;69.5
56594;BME280;42474;51.660;5.824;2023-03-16T04:55:31;101550.0;;;5.1;69.5
56594;BME280;42474;51.660;5.824;2023-03-16T05:00:31;101540.0;;;5.1;69.5
56594;BME280;42474;51.660;5.824;2023-03-16T05:05:31;101540.0;;;5.1;69.5
56594;BME280;42474;51.660;5.824;2023-03-16T05:10:31;101530.0;;;5.1;69.5
56594;BME280;42474;51.660;5.824;2023-03-16T05:15:31;101530.0;;;5.1;69.5
56594;BME280;42474;51.660;5.824;2023-03-16T05:20:31;101540.0;;;5.2;69.5
56594;BME280;42474;51.660;5.824;2023-03-16T05:25:31;101530.0;;;5.2;69.5
56594;BME280;42474;51.660;5.824;2023-03-16T05:30:31;101530.0;;;5.2;69.5
56594;BME280;42474;51.660;5.824;2023-03-16T05:35:31;101530.0;;;5.2;69.5
56594;BME280;42474;51.660;5.824;2023-03-16T05:40:31;101520.0;;;5.1;69.5
56594;BME280;42474;51.660;5.824;2023-03-16T05:45:31;101540.0;;;5.2;70.0
56594;BME280;42474;51.660;5.824;2023-03-16T05:50:31;101530.0;;;5.2;69.5
56594;BME280;42474;51.660;5.824;2023-03-16T05:55:31;101530.0;;;5.3;69.5
56594;BME280;42474;51.660;5.824;2023-03-16T06:00:31;101530.0;;;5.3;69.5
56594;BME280;42474;51.660;5.824;2023-03-16T06:05:31;101530.0;;;5.3;70.0
56594;BME280;42474;51.660;5.824;2023-03-16T06:10:31;101520.0;;;5.3;70.0
56594;BME280;42474;51.660;5.824;2023-03-16T06:15:31;101520.0;;;5.4;70.0
56594;BME280;42474;51.660;5.824;2023-03-16T06:20:31;101520.0;;;5.4;70.0
56594;BME280;42474;51.660;5.824;2023-03-16T06:25:31;101520.0;;;5.5;70.0
56594;BME280;42474;51.660;5.824;2023-03-16T06:30:31;101510.0;;;5.5;70.0
56594;BME280;42474;51.660;5.824;2023-03-16T06:35:31;101520.0;;;5.6;70.0
56594;BME280;42474;51.660;5.824;2023-03-16T06:40:31;101520.0;;;5.6;70.0
56594;BME280;42474;51.660;5.824;2023-03-16T06:45:31;101520.0;;;5.7;70.0
56594;BME280;42474;51.660;5.824;2023-03-16T06:50:31;101510.0;;;5.7;70.5
56594;BME280;42474;51.660;5.824;2023-03-16T06:55:31;101510.0;;;5.8;70.5
56594;BME280;42474;51.660;5.824;2023-03-16T07:00:31;101510.0;;;5.8;70.5
56594;BME280;42474;51.660;5.824;2023-03-16T07:05:31;101530.0;;;5.9;70.5
56594;BME280;42474;51.660;5.824;2023-03-16T07:10:31;101530.0;;;5.9;71.0
56594;BME280;42474;51.660;5.824;2023-03-16T07:15:31;101530.0;;;5.9;71.5
56594;BME280;42474;51.660;5.824;2023-03-16T07:20:31;101510.0;;;5.9;72.0
56594;BME280;42474;51.660;5.824;2023-03-16T07:25:31;101510.0;;;6.0;72.0
56594;BME280;42474;51.660;5.824;2023-03-16T07:30:31;101510.0;;;6.0;72.5
56594;BME280;42474;51.660;5.824;2023-03-16T07:35:31;101510.0;;;6.1;72.5
56594;BME280;42474;51.660;5.824;2023-03-16T07:40:31;101510.0;;;6.1;72.5
56594;BME280;42474;51.660;5.824;2023-03-16T07:45:31;101520.0;;;6.2;73.0
56594;BME280;42474;51.660;5.824;2023-03-16T07:50:31;101520.0;;;6.3;73.0
56594;BME280;42474;51.660;5.824;2023-03-16T07:55:31;101520.0;;;6.3;73.5
56594;BME280;42474;51.660;5.824;2023-03-16T08:00:31;101500.0;;;6.4;73.0
56594;BME280;42474;51.660;5.824;2023-03-16T08:05:31;101510.0;;;6.4;73.5
56594;BME280;42474;51.660;5.824;2023-03-16T08:10:31;101500.0;;;6.4;73.5
56594;BME280;42474;51.660;5.824;2023-03-16T08:15:31;101500.0;;;6.5;73.5
56594;BME280;42474;51.660;5.824;2023-03-16T08:20:31;101500.0;;;6.5;74.0
56594;BME280;42474;51.660;5.824;2023-03-16T08:25:31;101500.0;;;6.6;74.0
56594;BME280;42474;51.660;5.824;2023-03-16T08:30:31;101490.0;;;6.7;74.0
56594;BME280;42474;51.660;5.824;2023-03-16T08:35:31;101490.0;;;6.8;73.5
56594;BME280;42474;51.660;5.824;2023-03-16T08:40:31;101490.0;;;6.9;73.5
56594;BME280;42474;51.660;5.824;2023-03-16T08:45:31;101470.0;;;7.1;73.0
56594;BME280;42474;51.660;5.824;2023-03-16T08:50:31;101480.0;;;7.3;73.0
56594;BME280;42474;51.660;5.824;2023-03-16T08:55:31;101470.0;;;7.4;72.0
56594;BME280;42474;51.660;5.824;2023-03-16T09:00:31;101480.0;;;7.5;71.5
56594;BME280;42474;51.660;5.824;2023-03-16T09:05:31;101470.0;;;7.6;71.5
56594;BME280;42474;51.660;5.824;2023-03-16T09:10:31;101470.0;;;7.8;71.0
56594;BME280;42474;51.660;5.824;2023-03-16T09:15:31;101470.0;;;8.0;70.5
56594;BME280;42474;51.660;5.824;2023-03-16T09:20:31;101470.0;;;8.1;70.0
56594;BME280;42474;51.660;5.824;2023-03-16T09:25:31;101460.0;;;8.1;70.0
56594;BME280;42474;51.660;5.824;2023-03-16T09:30:31;101460.0;;;8.2;69.5
56594;BME280;42474;51.660;5.824;2023-03-16T09:35:31;101450.0;;;8.2;69.5
56594;BME280;42474;51.660;5.824;2023-03-16T09:40:33;101450.0;;;8.4;69.5
56594;BME280;42474;51.660;5.824;2023-03-16T09:46:02;101450.0;;;8.5;69.0
56594;BME280;42474;51.660;5.824;2023-03-16T09:50:33;101450.0;;;8.7;69.0
56594;BME280;42474;51.660;5.824;2023-03-16T09:55:47;101440.0;;;8.9;68.5
56594;BME280;42474;51.660;5.824;2023-03-16T10:00:40;101440.0;;;9.2;68.0
56594;BME280;42474;51.660;5.824;2023-03-16T10:05:31;101440.0;;;9.3;67.5
56594;BME280;42474;51.660;5.824;2023-03-16T10:11:10;101430.0;;;9.5;67.0
56594;BME280;42474;51.660;5.824;2023-03-16T10:15:39;101420.0;;;9.7;66.5
56594;BME280;42474;51.660;5.824;2023-03-16T10:20:33;101410.0;;;9.8;66.0
56594;BME280;42474;51.660;5.824;2023-03-16T10:25:47;101410.0;;;10.0;65.5
56594;BME280;42474;51.660;5.824;2023-03-16T10:30:34;101400.0;;;10.3;66.0
56594;BME280;42474;51.660;5.824;2023-03-16T10:35:41;101400.0;;;10.6;65.5
56594;BME280;42474;51.660;5.824;2023-03-16T10:40:31;101400.0;;;10.8;65.0
56594;BME280;42474;51.660;5.824;2023-03-16T10:45:34;101400.0;;;11.0;63.0
56594;BME280;42474;51.660;5.824;2023-03-16T10:50:31;101400.0;;;11.2;63.5
56594;BME280;42474;51.660;5.824;2023-03-16T10:55:40;101380.0;;;11.4;62.5
56594;BME280;42474;51.660;5.824;2023-03-16T11:00:36;101380.0;;;11.5;61.5
56594;BME280;42474;51.660;5.824;2023-03-16T11:05:33;101370.0;;;11.7;62.5
56594;BME280;42474;51.660;5.824;2023-03-16T11:10:36;101370.0;;;12.0;61.0
56594;BME280;42474;51.660;5.824;2023-03-16T11:15:36;101360.0;;;12.3;59.0
56594;BME280;42474;51.660;5.824;2023-03-16T11:20:33;101350.0;;;12.4;59.0
56594;BME280;42474;51.660;5.824;2023-03-16T11:25:38;101340.0;;;12.5;58.5
56594;BME280;42474;51.660;5.824;2023-03-16T11:30:38;101320.0;;;12.6;59.0
56594;BME280;42474;51.660;5.824;2023-03-16T11:35:43;101330.0;;;12.7;58.5
56594;BME280;42474;51.660;5.824;2023-03-16T11:41:00;101320.0;;;12.8;57.5
56594;BME280;42474;51.660;5.824;2023-03-16T11:46:07;101320.0;;;12.8;58.0
56594;BME280;42474;51.660;5.824;2023-03-16T11:50:56;101310.0;;;12.8;57.5
56594;BME280;42474;51.660;5.824;2023-03-16T11:56:33;101300.0;;;12.8;56.0
56594;BME280;42474;51.660;5.824;2023-03-16T12:01:22;101300.0;;;12.7;56.0
56594;BME280;42474;51.660;5.824;2023-03-16T12:06:44;101290.0;;;12.8;55.5
56594;BME280;42474;51.660;5.824;2023-03-16T12:11:23;101280.0;;;12.8;56.0
56594;BME280;42474;51.660;5.824;2023-03-16T12:16:15;101280.0;;;13.0;56.0
56594;BME280;42474;51.660;5.824;2023-03-16T12:20:41;101270.0;;;13.1;55.5
56594;BME280;42474;51.660;5.824;2023-03-16T12:25:34;101260.0;;;13.2;55.0
56594;BME280;42474;51.660;5.824;2023-03-16T12:30:48;101240.0;;;13.3;55.0
56594;BME280;42474;51.660;5.824;2023-03-16T12:35:53;101250.0;;;13.5;54.5
56594;BME280;42474;51.660;5.824;2023-03-16T12:40:44;101230.0;;;13.6;54.5
56594;BME280;42474;51.660;5.824;2023-03-16T12:45:52;101230.0;;;13.8;54.0
56594;BME280;42474;51.660;5.824;2023-03-16T12:50:31;101230.0;;;14.0;54.0
56594;BME280;42474;51.660;5.824;2023-03-16T12:55:43;101200.0;;;14.2;53.5
56594;BME280;42474;51.660;5.824;2023-03-16T13:00:36;101200.0;;;14.3;53.5
56594;BME280;42474;51.660;5.824;2023-03-16T13:05:34;101190.0;;;14.4;51.5
56594;BME280;42474;51.660;5.824;2023-03-16T13:10:31;101170.0;;;14.4;51.0
56594;BME280;42474;51.660;5.824;2023-03-16T13:15:31;101150.0;;;14.4;50.0
56594;BME280;42474;51.660;5.824;2023-03-16T13:20:47;101160.0;;;14.5;50.5
56594;BME280;42474;51.660;5.824;2023-03-16T13:25:40;101150.0;;;14.8;51.5
56594;BME280;42474;51.660;5.824;2023-03-16T13:30:34;101140.0;;;15.0;50.0
56594;BME280;42474;51.660;5.824;2023-03-16T13:35:31;101140.0;;;15.1;50.0
56594;BME280;42474;51.660;5.824;2023-03-16T13:40:31;101140.0;;;15.2;49.0
56594;BME280;42474;51.660;5.824;2023-03-16T13:45:36;101140.0;;;15.3;47.5
56594;BME280;42474;51.660;5.824;2023-03-16T13:50:32;101120.0;;;15.4;48.0
56594;BME280;42474;51.660;5.824;2023-03-16T13:55:37;101110.0;;;15.6;47.5
56594;BME280;42474;51.660;5.824;2023-03-16T14:00:34;101110.0;;;15.6;47.5
56594;BME280;42474;51.660;5.824;2023-03-16T14:05:33;101100.0;;;15.6;45.5
56594;BME280;42474;51.660;5.824;2023-03-16T14:10:34;101080.0;;;15.6;46.5
56594;BME280;42474;51.660;5.824;2023-03-16T14:15:31;101080.0;;;15.5;46.0
56594;BME280;42474;51.660;5.824;2023-03-16T14:20:31;101070.0;;;15.6;46.5
56594;BME280;42474;51.660;5.824;2023-03-16T14:25:31;101070.0;;;15.7;46.5
56594;BME280;42474;51.660;5.824;2023-03-16T14:30:31;101060.0;;;15.8;46.0
56594;BME280;42474;51.660;5.824;2023-03-16T14:35:32;101050.0;;;15.8;45.5
56594;BME280;42474;51.660;5.824;2023-03-16T14:40:31;101050.0;;;15.8;46.0
56594;BME280;42474;51.660;5.824;2023-03-16T14:45:35;101040.0;;;15.9;46.5
56594;BME280;42474;51.660;5.824;2023-03-16T14:50:32;101020.0;;;16.0;44.5
56594;BME280;42474;51.660;5.824;2023-03-16T14:55:31;101010.0;;;15.8;45.0
56594;BME280;42474;51.660;5.824;2023-03-16T15:00:31;101020.0;;;15.8;45.0
56594;BME280;42474;51.660;5.824;2023-03-16T15:05:36;101020.0;;;15.8;44.5
56594;BME280;42474;51.660;5.824;2023-03-16T15:10:32;101020.0;;;15.7;44.5
56594;BME280;42474;51.660;5.824;2023-03-16T15:15:31;101010.0;;;15.5;44.0
56594;BME280;42474;51.660;5.824;2023-03-16T15:20:40;101010.0;;;15.3;45.0
56594;BME280;42474;51.660;5.824;2023-03-16T15:25:35;101010.0;;;15.3;45.5
56594;BME280;42474;51.660;5.824;2023-03-16T15:30:31;101000.0;;;15.3;45.5
56594;BME280;42474;51.660;5.824;2023-03-16T15:35:31;100990.0;;;15.2;44.5
56594;BME280;42474;51.660;5.824;2023-03-16T15:40:31;100980.0;;;15.2;45.5
56594;BME280;42474;51.660;5.824;2023-03-16T15:45:31;100970.0;;;15.3;45.5
56594;BME280;42474;51.660;5.824;2023-03-16T15:50:31;100970.0;;;15.4;45.0
56594;BME280;42474;51.660;5.824;2023-03-16T15:55:40;100950.0;;;15.5;45.0
56594;BME280;42474;51.660;5.824;2023-03-16T16:00:36;100960.0;;;15.4;45.0
56594;BME280;42474;51.660;5.824;2023-03-16T16:05:31;100970.0;;;15.2;45.5
56594;BME280;42474;51.660;5.824;2023-03-16T16:10:32;100960.0;;;15.1;46.0
56594;BME280;42474;51.660;5.824;2023-03-16T16:15:32;100960.0;;;15.1;46.5
56594;BME280;42474;51.660;5.824;2023-03-16T16:20:31;100960.0;;;14.9;47.0
56594;BME280;42474;51.660;5.824;2023-03-16T16:25:39;100950.0;;;14.8;47.5
56594;BME280;42474;51.660;5.824;2023-03-16T16:30:31;100950.0;;;14.6;47.5
56594;BME280;42474;51.660;5.824;2023-03-16T16:35:31;100950.0;;;14.5;48.0
56594;BME280;42474;51.660;5.824;2023-03-16T16:40:38;100950.0;;;14.3;48.0
56594;BME280;42474;51.660;5.824;2023-03-16T16:45:31;100950.0;;;14.2;48.5
56594;BME280;42474;51.660;5.824;2023-03-16T16:50:31;100950.0;;;14.1;49.0
56594;BME280;42474;51.660;5.824;2023-03-16T16:55:31;100940.0;;;14.0;49.5
56594;BME280;42474;51.660;5.824;2023-03-16T17:00:31;100950.0;;;13.8;49.5
56594;BME280;42474;51.660;5.824;2023-03-16T17:05:31;100950.0;;;13.7;49.5
56594;BME280;42474;51.660;5.824;2023-03-16T17:10:31;100950.0;;;13.5;50.0
56594;BME280;42474;51.660;5.824;2023-03-16T17:15:31;100950.0;;;13.3;50.5
56594;BME280;42474;51.660;5.824;2023-03-16T17:20:31;100950.0;;;13.1;50.5
56594;BME280;42474;51.660;5.824;2023-03-16T17:25:31;100960.0;;;12.9;51.0
56594;BME280;42474;51.660;5.824;2023-03-16T17:30:31;100950.0;;;12.7;51.5
56594;BME280;42474;51.660;5.824;2023-03-16T17:35:31;100950.0;;;12.5;52.0
56594;BME280;42474;51.660;5.824;2023-03-16T17:40:31;100950.0;;;12.4;52.5
56594;BME280;42474;51.660;5.824;2023-03-16T17:45:31;100960.0;;;12.2;53.0
56594;BME280;42474;51.660;5.824;2023-03-16T17:50:31;100960.0;;;12.0;53.0
56594;BME280;42474;51.660;5.824;2023-03-16T17:55:31;100950.0;;;11.9;53.5
56594;BME280;42474;51.660;5.824;2023-03-16T18:00:35;100960.0;;;11.7;53.5
56594;BME280;42474;51.660;5.824;2023-03-16T18:05:33;100950.0;;;11.6;54.0
56594;BME280;42474;51.660;5.824;2023-03-16T18:10:31;100960.0;;;11.5;54.5
56594;BME280;42474;51.660;5.824;2023-03-16T18:15:34;100960.0;;;11.4;55.0
56594;BME280;42474;51.660;5.824;2023-03-16T18:20:35;100950.0;;;11.3;55.0
56594;BME280;42474;51.660;5.824;2023-03-16T18:25:32;100950.0;;;11.2;55.5
56594;BME280;42474;51.660;5.824;2023-03-16T18:30:32;100950.0;;;11.1;56.0
56594;BME280;42474;51.660;5.824;2023-03-16T18:35:31;100950.0;;;11.0;56.5
56594;BME280;42474;51.660;5.824;2023-03-16T18:40:31;100950.0;;;11.0;56.5
56594;BME280;42474;51.660;5.824;2023-03-16T18:45:31;100960.0;;;10.8;56.5
56594;BME280;42474;51.660;5.824;2023-03-16T18:50:31;100960.0;;;10.7;57.0
56594;BME280;42474;51.660;5.824;2023-03-16T18:55:31;100950.0;;;10.6;57.5
56594;BME280;42474;51.660;5.824;2023-03-16T19:00:31;100960.0;;;10.6;57.5
56594;BME280;42474;51.660;5.824;2023-03-16T19:05:33;100960.0;;;10.5;57.5
56594;BME280;42474;51.660;5.824;2023-03-16T19:10:34;100960.0;;;10.5;58.0
56594;BME280;42474;51.660;5.824;2023-03-16T19:15:32;100950.0;;;10.4;58.5
56594;BME280;42474;51.660;5.824;2023-03-16T19:20:32;100930.0;;;10.3;58.5
56594;BME280;42474;51.660;5.824;2023-03-16T19:25:35;100930.0;;;10.3;59.0
56594;BME280;42474;51.660;5.824;2023-03-16T19:30:32;100920.0;;;10.3;59.0
56594;BME280;42474;51.660;5.824;2023-03-16T19:35:31;100910.0;;;10.3;59.5
56594;BME280;42474;51.660;5.824;2023-03-16T19:40:31;100900.0;;;10.3;59.5
56594;BME280;42474;51.660;5.824;2023-03-16T19:45:32;100910.0;;;10.2;59.5
56594;BME280;42474;51.660;5.824;2023-03-16T19:50:31;100910.0;;;10.3;59.5
56594;BME280;42474;51.660;5.824;2023-03-16T19:55:31;100900.0;;;10.3;59.0
56594;BME280;42474;51.660;5.824;2023-03-16T20:00:32;100900.0;;;10.3;59.0
56594;BME280;42474;51.660;5.824;2023-03-16T20:05:31;100880.0;;;10.3;59.0
56594;BME280;42474;51.660;5.824;2023-03-16T20:10:31;100900.0;;;10.3;58.5
56594;BME280;42474;51.660;5.824;2023-03-16T20:15:32;100900.0;;;10.2;58.5
56594;BME280;42474;51.660;5.824;2023-03-16T20:20:31;100890.0;;;10.2;58.5
56594;BME280;42474;51.660;5.824;2023-03-16T20:25:32;100890.0;;;10.1;58.5
56594;BME280;42474;51.660;5.824;2023-03-16T20:30:32;100900.0;;;10.1;58.5
56594;BME280;42474;51.660;5.824;2023-03-16T20:35:31;100880.0;;;10.1;58.5
56594;BME280;42474;51.660;5.824;2023-03-16T20:40:31;100870.0;;;10.0;58.5
56594;BME280;42474;51.660;5.824;2023-03-16T20:45:32;100860.0;;;10.0;59.0
56594;BME280;42474;51.660;5.824;2023-03-16T20:50:31;100860.0;;;9.9;59.0
56594;BME280;42474;51.660;5.824;2023-03-16T20:55:31;100850.0;;;9.9;59.0
56594;BME280;42474;51.660;5.824;2023-03-16T21:00:34;100840.0;;;9.8;59.5
56594;BME280;42474;51.660;5.824;2023-03-16T21:05:31;100840.0;;;9.7;59.5
56594;BME280;42474;51.660;5.824;2023-03-16T21:10:31;100840.0;;;9.6;59.5
56594;BME280;42474;51.660;5.824;2023-03-16T21:15:32;100840.0;;;9.5;59.5
56594;BME280;42474;51.660;5.824;2023-03-16T21:20:33;100850.0;;;9.5;60.0
56594;BME280;42474;51.660;5.824;2023-03-16T21:25:42;100830.0;;;9.4;60.0
56594;BME280;42474;51.660;5.824;2023-03-16T21:30:34;100830.0;;;9.3;60.5
56594;BME280;42474;51.660;5.824;2023-03-16T21:35:36;100830.0;;;9.2;60.5
56594;BME280;42474;51.660;5.824;2023-03-16T21:40:31;100830.0;;;9.1;61.0
56594;BME280;42474;51.660;5.824;2023-03-16T21:50:33;100830.0;;;9.0;61.5
56594;BME280;42474;51.660;5.824;2023-03-16T21:55:31;100830.0;;;8.9;61.5
56594;BME280;42474;51.660;5.824;2023-03-16T22:00:31;100820.0;;;8.8;61.5
56594;BME280;42474;51.660;5.824;2023-03-16T22:05:37;100830.0;;;8.8;62.0
56594;BME280;42474;51.660;5.824;2023-03-16T22:10:31;100810.0;;;8.8;62.0
56594;BME280;42474;51.660;5.824;2023-03-16T22:15:31;100820.0;;;8.8;62.5
56594;BME280;42474;51.660;5.824;2023-03-16T22:20:31;100810.0;;;8.7;62.5
56594;BME280;42474;51.660;5.824;2023-03-16T22:25:31;100800.0;;;8.7;62.5
56594;BME280;42474;51.660;5.824;2023-03-16T22:30:31;100770.0;;;8.7;63.0
56594;BME280;42474;51.660;5.824;2023-03-16T22:35:34;100780.0;;;8.7;63.0
56594;BME280;42474;51.660;5.824;2023-03-16T22:40:35;100800.0;;;8.7;63.0
56594;BME280;42474;51.660;5.824;2023-03-16T22:45:32;100790.0;;;8.7;63.0
56594;BME280;42474;51.660;5.824;2023-03-16T22:50:34;100810.0;;;8.7;63.0
56594;BME280;42474;51.660;5.824;2023-03-16T22:55:38;100810.0;;;8.7;63.0
56594;BME280;42474;51.660;5.824;2023-03-16T23:00:31;100800.0;;;8.7;63.0
56594;BME280;42474;51.660;5.824;2023-03-16T23:05:31;100790.0;;;8.8;63.0
56594;BME280;42474;51.660;5.824;2023-03-16T23:10:31;100800.0;;;8.8;63.0
56594;BME280;42474;51.660;5.824;2023-03-16T23:15:36;100790.0;;;8.9;62.5
56594;BME280;42474;51.660;5.824;2023-03-16T23:20:31;100790.0;;;8.9;62.5
56594;BME280;42474;51.660;5.824;2023-03-16T23:25:31;100800.0;;;8.9;62.5
56594;BME280;42474;51.660;5.824;2023-03-16T23:30:32;100780.0;;;8.9;62.5
56594;BME280;42474;51.660;5.824;2023-03-16T23:35:31;100770.0;;;8.9;62.5
56594;BME280;42474;51.660;5.824;2023-03-16T23:40:34;100770.0;;;8.9;62.5
56594;BME280;42474;51.660;5.824;2023-03-16T23:45:39;100790.0;;;8.9;62.5
56594;BME280;42474;51.660;5.824;2023-03-16T23:50:34;100790.0;;;8.9;62.0
56594;BME280;42474;51.660;5.824;2023-03-16T23:55:31;100780.0;;;8.9;62.0
